Time;durP1;ratioP1;P1;durP2;ratioP2;P2;SDS_P1;SDS_P2;PMS_P1;PMS_P2;Temp;Humidity;BMP_temperature;BMP_pressure;BME280_temperature;BME280_humidity;BME280_pressure;Samples;Min_cycle;Max_cycle;Signal;HPM_P1;HPM_P2
2022/04/26 03:40:28;;;;;;;7.20;5.03;;;;;;;7.75;100.00;101773.75;10375788;28;20049;-76
2022/04/26 03:45:29;;;;;;;7.70;5.65;;;;;;;7.77;100.00;101770.94;10376611;28;20062;-77
2022/04/26 03:50:29;;;;;;;7.75;5.70;;;;;;;7.72;100.00;101775.94;10379622;28;20426;-77
2022/04/26 03:55:29;;;;;;;7.38;4.70;;;;;;;7.62;100.00;101784.13;10374174;28;20382;-77
2022/04/26 04:00:30;;;;;;;7.68;6.28;;;;;;;7.52;100.00;101789.59;10376262;28;20064;-76
2022/04/26 04:05:30;;;;;;;11.63;5.95;;;;;;;7.45;100.00;101777.75;10357147;28;20029;-77
2022/04/26 04:10:31;;;;;;;13.70;8.32;;;;;;;7.30;100.00;101784.69;10375784;28;20484;-77
2022/04/26 04:15:31;;;;;;;13.52;5.88;;;;;;;7.22;100.00;101791.69;10375591;28;20354;-77
2022/04/26 04:20:32;;;;;;;8.73;6.35;;;;;;;7.13;100.00;101797.16;10357722;28;20126;-78
2022/04/26 04:25:32;;;;;;;11.27;7.47;;;;;;;7.03;100.00;101799.94;10375167;28;20053;-76
2022/04/26 04:30:33;;;;;;;11.60;6.20;;;;;;;7.01;100.00;101799.22;10343144;28;20038;-76
2022/04/26 04:35:33;;;;;;;9.00;7.93;;;;;;;6.96;100.00;101806.94;10375837;28;20107;-76
2022/04/26 04:40:33;;;;;;;8.30;6.30;;;;;;;6.89;100.00;101822.84;10381466;28;20062;-76
2022/04/26 04:45:34;;;;;;;11.63;6.97;;;;;;;6.91;100.00;101826.22;10385877;28;20065;-77
2022/04/26 04:50:34;;;;;;;9.82;6.80;;;;;;;6.92;100.00;101836.00;10383676;28;20046;-77
2022/04/26 04:55:35;;;;;;;8.50;7.60;;;;;;;7.01;100.00;101838.78;10379272;28;20085;-78
2022/04/26 05:00:35;;;;;;;24.33;7.30;;;;;;;6.98;100.00;101848.00;10361378;28;20061;-77
2022/04/26 05:05:36;;;;;;;11.18;7.30;;;;;;;7.03;100.00;101855.63;10361857;28;20338;-73
2022/04/26 05:10:37;;;;;;;14.18;8.15;;;;;;;7.06;100.00;101855.34;10304315;28;20394;-77
2022/04/26 05:15:38;;;;;;;21.73;9.45;;;;;;;7.06;100.00;101856.19;10364367;28;20071;-76
2022/04/26 05:20:39;;;;;;;16.52;8.90;;;;;;;7.09;100.00;101871.19;10387662;28;20081;-76
2022/04/26 05:25:39;;;;;;;17.85;8.13;;;;;;;7.10;100.00;101879.13;10387404;28;20034;-77
2022/04/26 05:30:39;;;;;;;15.57;7.57;;;;;;;7.05;100.00;101878.72;10384243;28;20041;-77
2022/04/26 05:35:40;;;;;;;18.90;7.45;;;;;;;7.08;100.00;101885.63;10384847;28;20072;-78
2022/04/26 05:40:40;;;;;;;10.88;6.95;;;;;;;7.08;100.00;101889.19;10386306;28;20065;-77
2022/04/26 05:45:41;;;;;;;17.15;8.70;;;;;;;7.08;100.00;101889.19;10386207;28;20030;-77
2022/04/26 05:50:42;;;;;;;12.90;8.02;;;;;;;7.07;100.00;101887.50;10385214;28;20042;-78
2022/04/26 05:55:42;;;;;;;18.50;7.63;;;;;;;7.07;100.00;101895.56;10368187;28;20057;-76
2022/04/26 06:00:43;;;;;;;12.98;7.53;;;;;;;7.10;100.00;101897.97;10367051;28;20037;-77
2022/04/26 06:05:43;;;;;;;7.78;6.72;;;;;;;7.17;100.00;101904.44;10370012;28;20034;-76
2022/04/26 06:10:43;;;;;;;9.52;8.38;;;;;;;7.81;100.00;101899.03;10387384;28;20049;-79
2022/04/26 06:15:44;;;;;;;18.00;7.68;;;;;;;9.71;100.00;101898.84;10398742;28;20042;-77
2022/04/26 06:20:44;;;;;;;11.98;5.88;;;;;;;11.01;100.00;101899.72;10377544;28;20088;-79
2022/04/26 06:25:45;;;;;;;13.45;6.00;;;;;;;11.88;100.00;101901.41;10390977;28;20030;-78
2022/04/26 06:30:45;;;;;;;10.32;4.22;;;;;;;12.74;100.00;101898.22;10388501;28;20038;-79
2022/04/26 06:35:45;;;;;;;10.23;4.13;;;;;;;13.40;100.00;101900.09;10390972;28;20386;-78
2022/04/26 06:40:46;;;;;;;6.95;5.13;;;;;;;13.55;100.00;101900.06;10387553;28;20097;-77
2022/04/26 06:45:47;;;;;;;13.95;4.65;;;;;;;13.82;100.00;101906.66;10367446;28;20056;-77
2022/04/26 06:50:48;;;;;;;5.38;3.33;;;;;;;14.03;100.00;101917.50;10366163;28;20037;-77
2022/04/26 06:55:49;;;;;;;4.35;3.40;;;;;;;13.88;100.00;101925.78;10382125;28;20374;-78
2022/04/26 07:00:49;;;;;;;10.50;3.80;;;;;;;14.35;100.00;101923.44;10346947;28;20137;-79
2022/04/26 07:05:51;;;;;;;11.50;3.95;;;;;;;14.74;100.00;101935.69;10380405;28;20084;-78
2022/04/26 07:10:52;;;;;;;6.82;3.85;;;;;;;15.25;100.00;101938.09;10381287;28;20037;-79
2022/04/26 07:15:52;;;;;;;6.22;3.65;;;;;;;15.71;100.00;101937.44;10388391;28;20065;-80
2022/04/26 07:20:53;;;;;;;6.65;3.53;;;;;;;16.13;98.72;101930.78;10363163;28;20037;-79
2022/04/26 07:25:54;;;;;;;4.65;4.03;;;;;;;16.26;97.32;101943.63;10380294;28;20084;-80
2022/04/26 07:30:55;;;;;;;16.25;4.13;;;;;;;15.31;87.82;101937.28;10377584;28;20041;-78
2022/04/26 07:35:56;;;;;;;14.75;5.93;;;;;;;16.26;96.32;101947.19;10363863;28;20046;-80
2022/04/26 07:40:56;;;;;;;6.22;3.55;;;;;;;16.78;87.33;101939.19;10379510;28;20481;-78
2022/04/26 07:45:57;;;;;;;9.90;3.35;;;;;;;17.36;93.11;101941.13;10380836;28;20470;-79
2022/04/26 07:50:57;;;;;;;19.92;4.15;;;;;;;17.79;97.27;101935.88;10377344;28;20045;-78
2022/04/26 07:55:57;;;;;;;3.30;2.65;;;;;;;17.36;79.29;101941.97;10375820;28;20037;-78
2022/04/26 08:00:58;;;;;;;5.10;3.17;;;;;;;16.99;77.64;101948.19;10374965;28;20041;-77
2022/04/26 08:05:59;;;;;;;8.02;3.90;;;;;;;17.14;84.43;101954.28;10376349;28;20038;-78
2022/04/26 08:11:01;;;;;;;2.95;2.70;;;;;;;17.56;80.36;101966.50;10375686;28;20065;-77
2022/04/26 08:16:02;;;;;;;7.38;4.47;;;;;;;17.77;73.64;101961.78;10373683;28;20069;-76
2022/04/26 08:21:05;;;;;;;6.05;3.22;;;;;;;17.02;76.08;101969.66;10377114;28;20053;-78
2022/04/26 08:31:24;;;;;;;7.63;3.42;;;;;;;17.52;81.78;101975.41;10377135;28;20045;-78
2022/04/26 08:36:24;;;;;;;5.35;4.05;;;;;;;18.12;80.70;101974.03;10376485;28;20034;-78
2022/04/26 08:41:25;;;;;;;4.70;2.78;;;;;;;18.61;75.83;101974.28;10358962;28;20053;-77
2022/04/26 08:50:59;;;;;;;6.13;2.95;;;;;;;18.73;75.84;101979.88;10377414;28;20351;-78
2022/04/26 08:51:46;;;;;;;4.15;3.72;;;;;;;18.62;60.44;101995.16;10375502;28;20045;-77
2022/04/26 08:56:46;;;;;;;3.10;2.78;;;;;;;18.46;70.26;101982.81;10365880;28;20129;-76
2022/04/26 09:01:47;;;;;;;2.88;2.67;;;;;;;18.09;82.45;101995.53;10382875;28;20458;-77
2022/04/26 09:06:47;;;;;;;10.38;2.72;;;;;;;16.89;81.11;102001.47;10364434;28;20037;-77
2022/04/26 09:11:48;;;;;;;9.18;4.20;;;;;;;15.77;94.69;102010.38;10364765;28;20073;-75
2022/04/26 09:16:48;;;;;;;4.93;3.17;;;;;;;14.63;97.35;102025.19;10364050;28;20022;-76
2022/04/26 09:21:54;;;;;;;4.13;3.47;;;;;;;13.93;99.73;102024.03;10364541;28;20041;-76
2022/04/26 09:26:54;;;;;;;5.35;3.45;;;;;;;13.41;96.36;102037.84;10380895;28;20088;-77
2022/04/26 09:32:02;;;;;;;6.35;3.88;;;;;;;13.20;97.32;102044.84;10381903;28;20038;-76
2022/04/26 09:37:04;;;;;;;10.02;4.20;;;;;;;15.39;97.45;102038.09;10380995;28;20034;-78
2022/04/26 09:42:05;;;;;;;4.45;4.05;;;;;;;17.30;96.96;102043.28;10364380;28;20434;-77
2022/04/26 09:47:05;;;;;;;10.77;3.75;;;;;;;17.72;94.43;102041.88;10379758;28;20030;-78
2022/04/26 09:52:08;;;;;;;11.75;3.55;;;;;;;19.21;72.90;102036.84;10381053;28;20034;-77
2022/04/26 09:57:09;;;;;;;16.70;4.07;;;;;;;18.12;82.48;102047.19;10380868;28;20525;-77
2022/04/26 10:02:13;;;;;;;10.43;3.65;;;;;;;19.26;78.80;102029.59;10365782;28;20037;-77
2022/04/26 10:07:14;;;;;;;4.47;3.00;;;;;;;19.22;84.94;102041.28;10347973;28;20440;-78
2022/04/26 10:12:15;;;;;;;6.82;2.78;;;;;;;20.41;81.25;102033.41;10381671;28;20093;-77
2022/04/26 10:17:19;;;;;;;3.75;3.15;;;;;;;21.17;86.84;102039.13;10378944;28;20503;-76
2022/04/26 10:22:54;;;;;;;5.70;3.60;;;;;;;20.44;74.45;102042.00;10362928;28;20544;-77
2022/04/26 10:28:26;;;;;;;4.55;2.70;;;;;;;19.09;80.31;102052.41;10380086;28;20053;-77
2022/04/26 10:33:34;;;;;;;3.47;3.20;;;;;;;19.80;73.63;102048.22;10380147;28;20034;-76
2022/04/26 10:38:35;;;;;;;13.00;4.80;;;;;;;19.84;78.04;102050.28;10361342;28;20045;-76
2022/04/26 10:43:36;;;;;;;3.22;2.88;;;;;;;20.69;75.56;102040.19;10376245;28;20084;-76
2022/04/26 10:48:37;;;;;;;4.60;2.65;;;;;;;21.12;82.70;102051.72;10343867;28;20033;-78
2022/04/26 10:53:45;;;;;;;4.40;2.53;;;;;;;20.67;62.87;102049.50;10377269;28;20157;-76
2022/04/26 10:58:54;;;;;;;10.60;3.53;;;;;;;20.73;71.61;102058.72;10361496;28;20473;-76
2022/04/26 11:03:56;;;;;;;4.30;3.72;;;;;;;20.92;70.17;102058.63;10378027;28;20052;-76
2022/04/26 11:09:07;;;;;;;6.78;4.28;;;;;;;21.50;69.50;102066.06;10342761;28;20045;-77
2022/04/26 11:14:07;;;;;;;3.75;3.33;;;;;;;21.64;68.15;102069.41;10376104;28;20038;-75
2022/04/26 11:19:08;;;;;;;3.22;2.92;;;;;;;21.77;73.46;102069.13;10377418;28;20057;-78
2022/04/26 11:29:39;;;;;;;2.75;2.53;;;;;;;21.43;73.90;102068.94;10376543;28;20169;-76
2022/04/26 11:34:46;;;;;;;7.80;3.33;;;;;;;21.61;75.54;102075.41;10360071;28;20042;-77
2022/04/26 11:39:46;;;;;;;3.30;3.00;;;;;;;21.04;58.56;102079.59;10343573;28;20042;-77
2022/04/26 11:44:58;;;;;;;2.92;2.63;;;;;;;21.32;62.59;102080.81;10376867;28;20065;-77
2022/04/26 11:50:07;;;;;;;2.20;2.10;;;;;;;21.16;63.20;102076.03;10341507;28;20030;-76
2022/04/26 11:55:08;;;;;;;2.00;1.90;;;;;;;20.77;54.59;102093.00;10356718;28;20057;-76
2022/04/26 12:00:09;;;;;;;2.22;2.13;;;;;;;20.72;62.88;102098.34;10374578;28;20049;-76
2022/04/26 12:05:09;;;;;;;2.67;2.45;;;;;;;21.29;68.46;102090.38;10373876;28;20133;-77
2022/04/26 12:10:26;;;;;;;1.98;1.88;;;;;;;21.29;55.27;102092.31;10375629;28;20038;-76
2022/04/26 12:15:28;;;;;;;2.38;2.05;;;;;;;21.07;66.41;102108.59;10374954;28;20406;-76
2022/04/26 12:20:29;;;;;;;5.15;2.22;;;;;;;20.49;47.22;102103.78;10342406;28;20034;-76
2022/04/26 12:25:30;;;;;;;4.30;2.53;;;;;;;20.43;55.27;102105.53;10343071;28;20458;-76
2022/04/26 12:30:30;;;;;;;2.08;1.90;;;;;;;20.10;53.81;102115.09;10379088;28;20093;-75
2022/04/26 12:35:31;;;;;;;2.45;2.25;;;;;;;19.88;51.87;102116.66;10361886;28;20034;-75
2022/04/26 12:40:31;;;;;;;4.88;1.73;;;;;;;20.11;55.75;102119.53;10375925;28;20054;-75
2022/04/26 12:45:32;;;;;;;3.35;2.67;;;;;;;19.99;61.37;102113.13;10375289;28;20037;-76
2022/04/26 12:50:32;;;;;;;2.42;2.22;;;;;;;19.73;60.79;102126.09;10374450;28;20034;-76
2022/04/26 12:55:42;;;;;;;2.47;2.25;;;;;;;19.63;57.62;102125.78;10372894;28;20073;-76
2022/04/26 13:00:53;;;;;;;2.72;2.63;;;;;;;19.35;57.93;102133.66;10356149;28;20406;-75
2022/04/26 13:06:14;;;;;;;2.17;1.98;;;;;;;19.17;65.61;102138.03;10356828;28;20072;-75
2022/04/26 13:11:17;;;;;;;3.28;2.08;;;;;;;19.03;64.63;102136.50;10357226;28;20049;-75
2022/04/26 13:16:18;;;;;;;2.50;2.33;;;;;;;19.45;66.93;102137.56;10372796;28;20044;-76
2022/04/26 13:21:18;;;;;;;6.60;2.92;;;;;;;19.05;59.24;102139.84;10373596;28;20050;-74
2022/04/26 13:26:18;;;;;;;3.22;2.17;;;;;;;18.80;56.73;102140.69;10372285;28;20030;-74
2022/04/26 13:31:19;;;;;;;2.70;2.50;;;;;;;18.43;60.47;102133.28;10374639;28;20100;-76
2022/04/26 13:36:19;;;;;;;2.25;2.10;;;;;;;18.53;62.56;102130.91;10371584;28;20030;-75
2022/04/26 13:41:20;;;;;;;3.88;2.80;;;;;;;18.59;64.50;102135.50;10377243;28;20463;-74
2022/04/26 13:46:20;;;;;;;3.45;2.67;;;;;;;18.66;58.80;102130.81;10380426;28;20045;-77
2022/04/26 13:51:23;;;;;;;3.70;2.53;;;;;;;18.64;58.25;102132.94;10383469;28;20030;-76
2022/04/26 13:56:24;;;;;;;2.83;2.38;;;;;;;18.12;57.83;102126.69;10385561;28;20041;-74
2022/04/26 14:01:25;;;;;;;2.65;2.40;;;;;;;17.54;54.26;102127.47;10390735;28;20038;-76
2022/04/26 14:06:25;;;;;;;2.67;2.47;;;;;;;17.36;57.70;102130.91;10378595;28;20030;-76
2022/04/26 14:11:25;;;;;;;2.42;2.33;;;;;;;17.29;62.89;102131.94;10379790;28;20458;-75
2022/04/26 14:21:48;;;;;;;2.35;2.15;;;;;;;16.86;63.38;102129.63;10380330;28;20117;-76
2022/04/26 14:26:49;;;;;;;2.78;2.58;;;;;;;16.76;60.77;102137.41;10377073;28;20437;-76
2022/04/26 14:31:51;;;;;;;3.33;2.85;;;;;;;16.63;65.46;102130.84;10378880;28;20469;-76
2022/04/26 14:36:51;;;;;;;12.88;2.22;;;;;;;16.59;70.25;102128.72;10378054;28;20180;-76
2022/04/26 14:41:53;;;;;;;11.80;2.83;;;;;;;16.35;65.27;102135.63;10376842;28;20137;-76
2022/04/26 14:46:53;;;;;;;4.07;2.83;;;;;;;16.07;64.99;102135.72;10377617;28;20034;-76
2022/04/26 14:51:54;;;;;;;3.35;2.70;;;;;;;16.03;57.43;102130.66;10377907;28;20088;-76
2022/04/26 14:56:55;;;;;;;9.15;2.80;;;;;;;15.59;62.71;102134.59;10360500;28;20425;-76
2022/04/26 15:01:56;;;;;;;1.75;1.67;;;;;;;15.32;69.79;102143.66;10376379;28;20460;-76
2022/04/26 15:06:57;;;;;;;2.25;2.13;;;;;;;15.03;68.93;102136.50;10361593;28;20446;-76
2022/04/26 15:17:16;;;;;;;9.35;3.30;;;;;;;14.80;68.04;102125.78;10375706;28;20033;-76
2022/04/26 15:22:18;;;;;;;1.58;1.50;;;;;;;14.64;69.24;102130.50;10375222;28;20449;-77
2022/04/26 15:27:19;;;;;;;2.15;2.05;;;;;;;14.40;71.02;102141.72;10360464;28;20042;-78
2022/04/26 15:32:23;;;;;;;2.45;2.25;;;;;;;13.98;69.79;102146.03;10359967;28;20034;-76
2022/04/26 15:37:27;;;;;;;2.00;1.90;;;;;;;14.07;74.89;102144.91;10376965;28;20060;-76
2022/04/26 15:42:30;;;;;;;12.68;2.33;;;;;;;13.62;73.89;102143.22;10375255;28;20159;-76
2022/04/26 15:47:33;;;;;;;2.65;2.20;;;;;;;13.35;74.76;102153.72;10375137;28;20042;-75
2022/04/26 15:52:34;;;;;;;2.60;2.40;;;;;;;13.01;72.93;102146.00;10376324;28;20117;-76
2022/04/26 15:57:35;;;;;;;2.50;2.30;;;;;;;12.53;72.09;102158.94;10358134;28;20046;-76
2022/04/26 16:02:35;;;;;;;5.90;2.65;;;;;;;12.19;74.68;102157.44;10375073;28;20536;-76
2022/04/26 16:07:36;;;;;;;5.22;2.72;;;;;;;11.83;72.73;102173.31;10375107;28;20096;-75
2022/04/26 16:23:14;;;;;;;4.05;2.50;;;;;;;11.40;75.54;102170.88;10375504;28;20073;-77
2022/04/26 16:28:15;;;;;;;2.75;2.50;;;;;;;11.34;76.02;102176.16;10374854;28;20041;-76
2022/04/26 16:33:16;;;;;;;6.63;2.67;;;;;;;11.23;77.55;102180.06;10358259;28;20092;-77
2022/04/26 16:38:17;;;;;;;11.32;3.30;;;;;;;10.94;76.61;102169.72;10375021;28;20469;-75
2022/04/26 16:43:18;;;;;;;8.93;3.60;;;;;;;10.77;76.10;102170.72;10373508;28;20383;-76
2022/04/26 16:48:18;;;;;;;4.80;2.92;;;;;;;10.56;76.08;102176.59;10375139;28;20057;-75
2022/04/26 16:53:18;;;;;;;8.23;3.40;;;;;;;10.55;77.35;102180.34;10373239;28;20394;-76
2022/04/26 16:58:19;;;;;;;5.03;3.80;;;;;;;10.68;79.58;102176.13;10356011;28;20045;-75
2022/04/26 17:03:19;;;;;;;8.02;3.60;;;;;;;10.56;79.26;102171.19;10356017;28;20081;-75
2022/04/26 17:08:20;;;;;;;2.60;2.40;;;;;;;10.48;80.74;102180.16;10356046;28;20045;-76
2022/04/26 17:13:20;;;;;;;4.00;2.67;;;;;;;10.35;81.47;102180.63;10355481;28;20033;-75
2022/04/26 17:18:21;;;;;;;5.38;2.85;;;;;;;10.29;81.88;102183.16;10380421;28;20093;-76
2022/04/26 17:23:21;;;;;;;3.15;2.90;;;;;;;10.14;80.99;102180.19;10367016;28;20034;-76
2022/04/26 17:28:24;;;;;;;8.38;3.67;;;;;;;10.07;82.68;102192.66;10381787;28;20042;-76
2022/04/26 17:33:25;;;;;;;7.00;2.95;;;;;;;9.95;83.93;102190.25;10380740;28;20037;-76
2022/04/26 17:38:25;;;;;;;7.22;3.13;;;;;;;9.92;85.34;102204.13;10380687;28;20418;-76
2022/04/26 17:43:25;;;;;;;8.02;3.75;;;;;;;9.82;83.64;102206.06;10379658;28;20061;-75
2022/04/26 17:48:26;;;;;;;6.07;3.33;;;;;;;9.72;84.19;102216.16;10380673;28;20077;-75
2022/04/26 17:58:46;;;;;;;2.47;2.38;;;;;;;9.50;83.79;102226.50;10364761;28;20034;-76
2022/04/26 18:03:48;;;;;;;4.38;3.55;;;;;;;9.41;85.88;102226.59;10363165;28;20033;-75
2022/04/26 18:08:48;;;;;;;6.13;3.35;;;;;;;9.32;86.00;102237.34;10362258;28;20048;-75
2022/04/26 18:13:52;;;;;;;7.53;2.17;;;;;;;9.28;85.87;102241.38;10378255;28;20044;-76
2022/04/26 18:18:52;;;;;;;6.50;3.17;;;;;;;9.23;87.44;102254.50;10379199;28;20081;-76
2022/04/26 18:23:53;;;;;;;7.55;3.40;;;;;;;9.14;88.05;102258.13;10378509;28;20052;-76
2022/04/26 18:28:57;;;;;;;7.57;3.97;;;;;;;8.95;88.20;102259.13;10378321;28;20042;-76
2022/04/26 18:33:58;;;;;;;4.93;2.72;;;;;;;8.83;87.72;102268.44;10379701;28;20496;-76
2022/04/26 18:38:59;;;;;;;6.15;3.50;;;;;;;8.72;88.70;102261.44;10379291;28;20112;-77
2022/04/26 18:43:59;;;;;;;5.70;4.05;;;;;;;8.71;89.59;102270.53;10377676;28;20085;-74
2022/04/26 18:49:00;;;;;;;5.50;3.38;;;;;;;8.58;89.59;102284.41;10378831;28;20058;-74
2022/04/26 18:54:00;;;;;;;3.28;3.08;;;;;;;8.48;90.46;102285.44;10379031;28;20030;-73
2022/04/26 18:59:00;;;;;;;4.43;3.22;;;;;;;8.44;91.07;102292.13;10377776;28;20073;-74
2022/04/26 19:04:01;;;;;;;10.73;3.75;;;;;;;8.38;91.21;102301.69;10360311;28;20424;-73
2022/04/26 19:09:03;;;;;;;4.88;3.58;;;;;;;8.32;92.00;102302.25;10378904;28;20037;-74
2022/04/26 19:14:04;;;;;;;6.60;3.92;;;;;;;8.18;91.48;102308.13;10359498;28;20037;-73
2022/04/26 19:19:04;;;;;;;8.55;3.35;;;;;;;8.13;92.57;102322.88;10377779;28;20041;-74
2022/04/26 19:24:05;;;;;;;7.55;4.43;;;;;;;8.03;92.65;102324.78;10377330;28;20026;-74
2022/04/26 19:29:05;;;;;;;4.22;3.45;;;;;;;7.96;93.04;102333.59;10343115;28;20034;-74
2022/04/26 19:34:06;;;;;;;9.40;5.50;;;;;;;7.82;93.15;102335.75;10375261;28;20489;-73
2022/04/26 19:39:06;;;;;;;7.88;4.25;;;;;;;7.76;93.65;102344.41;10357909;28;20077;-73
2022/04/26 19:44:06;;;;;;;20.00;5.35;;;;;;;7.66;93.41;102340.88;10378657;28;20054;-75
2022/04/26 19:49:07;;;;;;;11.38;4.38;;;;;;;7.57;94.40;102339.91;10376352;28;20096;-73
2022/04/26 19:54:07;;;;;;;3.53;3.20;;;;;;;7.55;94.26;102349.09;10359105;28;20030;-73
2022/04/26 19:59:08;;;;;;;16.15;4.68;;;;;;;7.45;94.65;102349.09;10376117;28;20036;-73
2022/04/26 20:04:08;;;;;;;6.85;4.25;;;;;;;7.39;94.54;102339.75;10374516;28;20038;-73
2022/04/26 20:09:09;;;;;;;8.57;4.60;;;;;;;7.40;95.02;102349.56;10374258;28;20037;-73
2022/04/26 20:14:09;;;;;;;11.50;4.20;;;;;;;7.35;95.70;102353.66;10375846;28;20034;-73
2022/04/26 20:19:10;;;;;;;9.20;3.95;;;;;;;7.36;95.77;102363.44;10374864;28;20374;-73
2022/04/26 20:24:10;;;;;;;5.82;3.85;;;;;;;7.29;96.23;102357.75;10374309;28;20040;-72
2022/04/26 20:34:30;;;;;;;16.45;5.47;;;;;;;7.14;96.01;102354.59;10359591;28;20033;-72
2022/04/26 20:39:30;;;;;;;14.80;5.07;;;;;;;7.13;96.47;102366.38;10357093;28;20033;-75
2022/04/26 20:44:31;;;;;;;8.77;4.97;;;;;;;7.04;95.85;102352.88;10357852;28;20038;-73
2022/04/26 20:49:31;;;;;;;8.15;3.92;;;;;;;6.94;96.34;102369.88;10377957;28;20034;-74
2022/04/26 20:54:35;;;;;;;9.35;3.63;;;;;;;6.85;96.06;102373.38;10365083;28;20030;-74
2022/04/26 20:59:35;;;;;;;6.45;3.72;;;;;;;6.83;96.82;102367.31;10382343;28;20034;-75
2022/04/26 21:04:35;;;;;;;8.13;4.03;;;;;;;6.79;97.34;102370.41;10383132;28;20034;-76
2022/04/26 21:09:36;;;;;;;4.30;3.90;;;;;;;6.77;96.77;102380.47;10380936;28;20026;-73
2022/04/26 21:14:36;;;;;;;7.00;4.25;;;;;;;6.65;96.66;102372.47;10364777;28;20082;-75
2022/04/26 21:19:37;;;;;;;4.40;4.00;;;;;;;6.62;96.92;102379.97;10365101;28;20030;-74
2022/04/26 21:24:37;;;;;;;7.88;3.63;;;;;;;6.55;96.54;102371.59;10381345;28;20026;-72
2022/04/26 21:29:38;;;;;;;7.30;4.28;;;;;;;6.49;96.56;102380.19;10381738;28;20022;-74
2022/04/26 21:34:38;;;;;;;3.92;3.63;;;;;;;6.41;96.79;102388.06;10381220;28;20034;-74
2022/04/26 21:39:38;;;;;;;4.25;3.85;;;;;;;6.32;97.22;102397.81;10380344;28;20034;-74
2022/04/26 21:44:39;;;;;;;4.22;3.38;;;;;;;6.28;97.22;102391.81;10381416;28;20037;-74
2022/04/26 21:55:00;;;;;;;5.88;4.10;;;;;;;6.20;97.68;102396.19;10380746;28;20029;-74
2022/04/26 22:00:05;;;;;;;12.82;4.53;;;;;;;6.22;97.64;102403.16;10381474;28;20038;-73
2022/04/26 22:05:07;;;;;;;4.73;4.33;;;;;;;6.14;97.23;102413.69;10381776;28;20040;-74
2022/04/26 22:10:08;;;;;;;5.78;4.05;;;;;;;6.12;97.94;102410.28;10380235;28;20529;-74
2022/04/26 22:15:08;;;;;;;12.13;4.72;;;;;;;6.12;98.27;102421.03;10362097;28;20120;-74
2022/04/26 22:20:09;;;;;;;6.38;5.57;;;;;;;6.12;97.93;102425.56;10380211;28;20381;-74
2022/04/26 22:25:11;;;;;;;5.57;4.53;;;;;;;6.03;97.36;102427.19;10381199;28;20080;-73
2022/04/26 22:30:11;;;;;;;6.60;4.90;;;;;;;6.02;97.66;102436.25;10377477;28;20030;-74
2022/04/26 22:35:12;;;;;;;4.50;4.10;;;;;;;5.93;97.75;102435.19;10362209;28;20033;-74
2022/04/26 22:40:13;;;;;;;4.93;4.45;;;;;;;5.86;97.60;102433.97;10377319;28;20442;-73
2022/04/26 22:45:13;;;;;;;10.90;5.22;;;;;;;5.86;97.90;102435.81;10361425;28;20104;-74
2022/04/26 22:50:13;;;;;;;7.50;5.85;;;;;;;5.79;97.70;102440.84;10377040;28;20034;-74
2022/04/26 22:55:14;;;;;;;7.55;6.35;;;;;;;5.69;97.96;102446.16;10377184;28;20128;-74
2022/04/26 23:00:14;;;;;;;5.55;4.93;;;;;;;5.67;97.80;102447.25;10378126;28;20076;-76
2022/04/26 23:05:15;;;;;;;19.27;5.95;;;;;;;5.64;97.93;102439.44;10377588;28;20037;-75
2022/04/26 23:10:15;;;;;;;6.03;5.40;;;;;;;5.59;97.91;102439.84;10377499;28;20470;-75
2022/04/26 23:15:15;;;;;;;11.50;6.05;;;;;;;5.53;97.94;102459.16;10359533;28;20042;-75
2022/04/26 23:20:16;;;;;;;10.57;6.32;;;;;;;5.45;97.79;102454.38;10377650;28;20132;-74
2022/04/26 23:25:16;;;;;;;8.00;5.97;;;;;;;5.42;97.81;102456.47;10377017;28;20041;-74
2022/04/26 23:30:17;;;;;;;6.25;5.65;;;;;;;5.40;97.38;102470.03;10360737;28;20046;-74
2022/04/26 23:35:35;;;;;;;5.15;4.72;;;;;;;5.34;97.69;102468.69;10360900;28;20466;-74
2022/04/26 23:40:36;;;;;;;10.88;5.70;;;;;;;5.33;98.14;102469.69;10362484;28;20072;-74
2022/04/26 23:45:37;;;;;;;6.78;6.07;;;;;;;5.33;98.00;102477.75;10358631;28;20466;-73
2022/04/26 23:55:57;;;;;;;16.48;6.80;;;;;;;5.18;97.90;102473.63;10375906;28;20066;-74
